sensor_id;sensor_type;location;lat;lon;timestamp;temperature;humidity
55173;DHT22;41061;52.822;6.860;2022-07-23T00:00:19;15.00;99.90
55173;DHT22;41061;52.822;6.860;2022-07-23T00:02:45;15.00;99.90
55173;DHT22;41061;52.822;6.860;2022-07-23T00:05:11;15.00;99.90
55173;DHT22;41061;52.822;6.860;2022-07-23T00:07:37;15.00;99.90
55173;DHT22;41061;52.822;6.860;2022-07-23T00:10:04;15.00;99.90
55173;DHT22;41061;52.822;6.860;2022-07-23T00:12:29;15.00;99.90
55173;DHT22;41061;52.822;6.860;2022-07-23T00:14:55;15.00;99.90
55173;DHT22;41061;52.822;6.860;2022-07-23T00:17:21;15.00;99.90
55173;DHT22;41061;52.822;6.860;2022-07-23T00:19:46;15.00;99.90
55173;DHT22;41061;52.822;6.860;2022-07-23T00:22:12;15.00;99.90
55173;DHT22;41061;52.822;6.860;2022-07-23T00:24:37;15.00;99.90
55173;DHT22;41061;52.822;6.860;2022-07-23T00:27:03;15.00;99.90
55173;DHT22;41061;52.822;6.860;2022-07-23T00:29:29;15.00;99.90
55173;DHT22;41061;52.822;6.860;2022-07-23T00:31:55;14.90;99.90
55173;DHT22;41061;52.822;6.860;2022-07-23T00:34:20;14.90;99.90
55173;DHT22;41061;52.822;6.860;2022-07-23T00:36:46;14.80;99.90
55173;DHT22;41061;52.822;6.860;2022-07-23T00:39:12;14.80;99.90
55173;DHT22;41061;52.822;6.860;2022-07-23T00:41:37;14.80;99.90
55173;DHT22;41061;52.822;6.860;2022-07-23T00:47:19;14.80;99.90
55173;DHT22;41061;52.822;6.860;2022-07-23T00:49:37;14.70;99.90
55173;DHT22;41061;52.822;6.860;2022-07-23T00:52:03;14.70;99.90
55173;DHT22;41061;52.822;6.860;2022-07-23T00:54:29;14.70;99.90
55173;DHT22;41061;52.822;6.860;2022-07-23T00:56:54;14.60;99.90
55173;DHT22;41061;52.822;6.860;2022-07-23T00:59:20;14.60;99.90
55173;DHT22;41061;52.822;6.860;2022-07-23T01:01:46;14.60;99.90
55173;DHT22;41061;52.822;6.860;2022-07-23T01:04:15;14.50;99.90
55173;DHT22;41061;52.822;6.860;2022-07-23T01:06:40;14.50;99.90
55173;DHT22;41061;52.822;6.860;2022-07-23T01:09:07;14.50;99.90
55173;DHT22;41061;52.822;6.860;2022-07-23T01:11:34;14.50;99.90
55173;DHT22;41061;52.822;6.860;2022-07-23T01:16:36;14.50;99.90
55173;DHT22;41061;52.822;6.860;2022-07-23T01:19:02;14.50;99.90
55173;DHT22;41061;52.822;6.860;2022-07-23T01:21:30;14.50;99.90
55173;DHT22;41061;52.822;6.860;2022-07-23T01:23:56;14.50;99.90
55173;DHT22;41061;52.822;6.860;2022-07-23T01:26:21;14.50;99.90
55173;DHT22;41061;52.822;6.860;2022-07-23T01:28:47;14.50;99.90
55173;DHT22;41061;52.822;6.860;2022-07-23T01:31:13;14.50;99.90
55173;DHT22;41061;52.822;6.860;2022-07-23T01:33:39;14.50;99.90
55173;DHT22;41061;52.822;6.860;2022-07-23T01:36:05;14.50;99.90
55173;DHT22;41061;52.822;6.860;2022-07-23T01:38:30;14.40;99.90
55173;DHT22;41061;52.822;6.860;2022-07-23T01:40:56;14.40;99.90
55173;DHT22;41061;52.822;6.860;2022-07-23T01:43:22;14.40;99.90
55173;DHT22;41061;52.822;6.860;2022-07-23T01:45:47;14.40;99.90
55173;DHT22;41061;52.822;6.860;2022-07-23T01:48:13;14.30;99.90
55173;DHT22;41061;52.822;6.860;2022-07-23T01:50:38;14.30;99.90
55173;DHT22;41061;52.822;6.860;2022-07-23T01:53:04;14.20;99.90
55173;DHT22;41061;52.822;6.860;2022-07-23T01:55:30;14.20;99.90
55173;DHT22;41061;52.822;6.860;2022-07-23T01:57:55;14.10;99.90
55173;DHT22;41061;52.822;6.860;2022-07-23T02:00:21;14.10;99.90
55173;DHT22;41061;52.822;6.860;2022-07-23T02:02:46;14.00;99.90
55173;DHT22;41061;52.822;6.860;2022-07-23T02:05:12;14.00;99.90
55173;DHT22;41061;52.822;6.860;2022-07-23T02:07:38;13.90;99.90
55173;DHT22;41061;52.822;6.860;2022-07-23T02:10:04;13.90;99.90
55173;DHT22;41061;52.822;6.860;2022-07-23T02:12:29;13.90;99.90
55173;DHT22;41061;52.822;6.860;2022-07-23T02:14:55;13.80;99.90
55173;DHT22;41061;52.822;6.860;2022-07-23T02:17:21;13.80;99.90
55173;DHT22;41061;52.822;6.860;2022-07-23T02:19:46;13.80;99.90
55173;DHT22;41061;52.822;6.860;2022-07-23T02:22:12;13.80;99.90
55173;DHT22;41061;52.822;6.860;2022-07-23T02:24:38;13.70;99.90
55173;DHT22;41061;52.822;6.860;2022-07-23T02:27:03;13.70;99.90
55173;DHT22;41061;52.822;6.860;2022-07-23T02:29:29;13.60;99.90
55173;DHT22;41061;52.822;6.860;2022-07-23T02:31:54;13.60;99.90
55173;DHT22;41061;52.822;6.860;2022-07-23T02:34:20;13.50;99.90
55173;DHT22;41061;52.822;6.860;2022-07-23T02:36:46;13.50;99.90
55173;DHT22;41061;52.822;6.860;2022-07-23T02:39:11;13.40;99.90
55173;DHT22;41061;52.822;6.860;2022-07-23T02:41:37;13.40;99.90
55173;DHT22;41061;52.822;6.860;2022-07-23T02:44:03;13.40;99.90
55173;DHT22;41061;52.822;6.860;2022-07-23T02:46:28;13.40;99.90
55173;DHT22;41061;52.822;6.860;2022-07-23T02:48:54;13.30;99.90
55173;DHT22;41061;52.822;6.860;2022-07-23T02:51:20;13.30;99.90
55173;DHT22;41061;52.822;6.860;2022-07-23T02:53:45;13.20;99.90
55173;DHT22;41061;52.822;6.860;2022-07-23T02:56:11;13.30;99.90
55173;DHT22;41061;52.822;6.860;2022-07-23T02:58:37;13.20;99.90
55173;DHT22;41061;52.822;6.860;2022-07-23T03:01:03;13.10;99.90
55173;DHT22;41061;52.822;6.860;2022-07-23T03:03:28;13.10;99.90
55173;DHT22;41061;52.822;6.860;2022-07-23T03:05:54;13.10;99.90
55173;DHT22;41061;52.822;6.860;2022-07-23T03:08:19;13.00;99.90
55173;DHT22;41061;52.822;6.860;2022-07-23T03:10:45;12.90;99.90
55173;DHT22;41061;52.822;6.860;2022-07-23T03:13:11;12.90;99.90
55173;DHT22;41061;52.822;6.860;2022-07-23T03:15:36;12.90;99.90
55173;DHT22;41061;52.822;6.860;2022-07-23T03:18:02;12.90;99.90
55173;DHT22;41061;52.822;6.860;2022-07-23T03:20:28;12.80;99.90
55173;DHT22;41061;52.822;6.860;2022-07-23T03:22:53;12.80;99.90
55173;DHT22;41061;52.822;6.860;2022-07-23T03:25:19;12.80;99.90
55173;DHT22;41061;52.822;6.860;2022-07-23T03:27:45;12.80;99.90
55173;DHT22;41061;52.822;6.860;2022-07-23T03:30:11;12.80;99.90
55173;DHT22;41061;52.822;6.860;2022-07-23T03:32:37;12.70;99.90
55173;DHT22;41061;52.822;6.860;2022-07-23T03:35:03;12.70;99.90
55173;DHT22;41061;52.822;6.860;2022-07-23T03:37:29;12.70;99.90
55173;DHT22;41061;52.822;6.860;2022-07-23T03:39:55;12.70;99.90
55173;DHT22;41061;52.822;6.860;2022-07-23T03:42:21;12.70;99.90
55173;DHT22;41061;52.822;6.860;2022-07-23T03:44:46;12.70;99.90
55173;DHT22;41061;52.822;6.860;2022-07-23T03:47:12;12.60;99.90
55173;DHT22;41061;52.822;6.860;2022-07-23T03:49:38;12.60;99.90
55173;DHT22;41061;52.822;6.860;2022-07-23T03:52:04;12.60;99.90
55173;DHT22;41061;52.822;6.860;2022-07-23T03:54:29;12.50;99.90
55173;DHT22;41061;52.822;6.860;2022-07-23T03:56:55;12.50;99.90
55173;DHT22;41061;52.822;6.860;2022-07-23T03:59:21;12.50;99.90
55173;DHT22;41061;52.822;6.860;2022-07-23T04:01:46;12.50;99.90
55173;DHT22;41061;52.822;6.860;2022-07-23T04:04:12;12.50;99.90
55173;DHT22;41061;52.822;6.860;2022-07-23T04:06:37;12.50;99.90
55173;DHT22;41061;52.822;6.860;2022-07-23T04:09:03;12.40;99.90
55173;DHT22;41061;52.822;6.860;2022-07-23T04:11:30;12.40;99.90
55173;DHT22;41061;52.822;6.860;2022-07-23T04:13:56;12.50;99.90
55173;DHT22;41061;52.822;6.860;2022-07-23T04:16:21;12.50;99.90
55173;DHT22;41061;52.822;6.860;2022-07-23T04:18:47;12.50;99.90
55173;DHT22;41061;52.822;6.860;2022-07-23T04:21:12;12.50;99.90
55173;DHT22;41061;52.822;6.860;2022-07-23T04:23:38;12.60;99.90
55173;DHT22;41061;52.822;6.860;2022-07-23T04:26:04;12.70;99.90
55173;DHT22;41061;52.822;6.860;2022-07-23T04:28:29;12.70;99.90
55173;DHT22;41061;52.822;6.860;2022-07-23T04:30:59;12.70;99.90
55173;DHT22;41061;52.822;6.860;2022-07-23T04:33:25;12.80;99.90
55173;DHT22;41061;52.822;6.860;2022-07-23T04:35:50;12.80;99.90
55173;DHT22;41061;52.822;6.860;2022-07-23T04:38:16;12.90;99.90
55173;DHT22;41061;52.822;6.860;2022-07-23T04:40:41;12.90;99.90
55173;DHT22;41061;52.822;6.860;2022-07-23T04:43:07;13.00;99.90
55173;DHT22;41061;52.822;6.860;2022-07-23T04:45:33;13.00;99.90
55173;DHT22;41061;52.822;6.860;2022-07-23T04:47:58;13.10;99.90
55173;DHT22;41061;52.822;6.860;2022-07-23T04:50:24;13.10;99.90
55173;DHT22;41061;52.822;6.860;2022-07-23T04:52:50;13.20;99.90
55173;DHT22;41061;52.822;6.860;2022-07-23T04:55:16;13.30;99.90
55173;DHT22;41061;52.822;6.860;2022-07-23T04:57:41;13.40;99.90
55173;DHT22;41061;52.822;6.860;2022-07-23T05:00:08;13.40;99.90
55173;DHT22;41061;52.822;6.860;2022-07-23T05:02:34;13.50;99.90
55173;DHT22;41061;52.822;6.860;2022-07-23T05:05:00;13.60;99.90
55173;DHT22;41061;52.822;6.860;2022-07-23T05:07:26;13.70;99.90
55173;DHT22;41061;52.822;6.860;2022-07-23T05:09:52;13.70;99.90
55173;DHT22;41061;52.822;6.860;2022-07-23T05:12:17;13.90;99.90
55173;DHT22;41061;52.822;6.860;2022-07-23T05:14:43;14.00;99.90
55173;DHT22;41061;52.822;6.860;2022-07-23T05:17:08;14.10;99.90
55173;DHT22;41061;52.822;6.860;2022-07-23T05:19:35;14.20;99.90
55173;DHT22;41061;52.822;6.860;2022-07-23T05:22:01;14.20;99.90
55173;DHT22;41061;52.822;6.860;2022-07-23T05:24:27;14.30;99.90
55173;DHT22;41061;52.822;6.860;2022-07-23T05:26:52;14.40;99.90
55173;DHT22;41061;52.822;6.860;2022-07-23T05:29:18;14.50;99.90
55173;DHT22;41061;52.822;6.860;2022-07-23T05:31:44;14.60;99.90
55173;DHT22;41061;52.822;6.860;2022-07-23T05:34:10;14.60;99.90
55173;DHT22;41061;52.822;6.860;2022-07-23T05:36:35;14.70;99.90
55173;DHT22;41061;52.822;6.860;2022-07-23T05:39:02;14.70;99.90
55173;DHT22;41061;52.822;6.860;2022-07-23T05:41:28;14.80;99.90
55173;DHT22;41061;52.822;6.860;2022-07-23T05:43:53;14.80;99.90
55173;DHT22;41061;52.822;6.860;2022-07-23T05:46:19;14.90;99.90
55173;DHT22;41061;52.822;6.860;2022-07-23T05:48:45;15.00;99.90
55173;DHT22;41061;52.822;6.860;2022-07-23T05:51:21;15.00;99.90
55173;DHT22;41061;52.822;6.860;2022-07-23T05:53:47;15.10;99.90
55173;DHT22;41061;52.822;6.860;2022-07-23T05:56:13;15.20;99.90
55173;DHT22;41061;52.822;6.860;2022-07-23T05:58:39;15.20;99.90
55173;DHT22;41061;52.822;6.860;2022-07-23T06:01:05;15.30;99.90
55173;DHT22;41061;52.822;6.860;2022-07-23T06:03:31;15.30;99.90
55173;DHT22;41061;52.822;6.860;2022-07-23T06:05:56;15.40;99.90
55173;DHT22;41061;52.822;6.860;2022-07-23T06:08:22;15.50;99.90
55173;DHT22;41061;52.822;6.860;2022-07-23T06:10:48;15.60;99.90
55173;DHT22;41061;52.822;6.860;2022-07-23T06:13:13;15.60;99.90
55173;DHT22;41061;52.822;6.860;2022-07-23T06:15:39;15.70;99.90
55173;DHT22;41061;52.822;6.860;2022-07-23T06:18:05;15.80;99.90
55173;DHT22;41061;52.822;6.860;2022-07-23T06:20:31;15.80;99.90
55173;DHT22;41061;52.822;6.860;2022-07-23T06:22:57;15.90;99.90
55173;DHT22;41061;52.822;6.860;2022-07-23T06:25:22;15.90;99.90
55173;DHT22;41061;52.822;6.860;2022-07-23T06:27:48;16.00;99.90
55173;DHT22;41061;52.822;6.860;2022-07-23T06:30:15;16.10;99.90
55173;DHT22;41061;52.822;6.860;2022-07-23T06:32:45;16.20;99.90
55173;DHT22;41061;52.822;6.860;2022-07-23T06:35:11;16.30;99.90
55173;DHT22;41061;52.822;6.860;2022-07-23T06:37:37;16.40;99.90
55173;DHT22;41061;52.822;6.860;2022-07-23T06:40:03;16.50;99.90
55173;DHT22;41061;52.822;6.860;2022-07-23T06:42:28;16.50;99.90
55173;DHT22;41061;52.822;6.860;2022-07-23T06:44:54;16.60;99.90
55173;DHT22;41061;52.822;6.860;2022-07-23T06:47:20;16.60;99.90
55173;DHT22;41061;52.822;6.860;2022-07-23T06:49:45;16.80;99.90
55173;DHT22;41061;52.822;6.860;2022-07-23T06:52:11;16.90;99.90
55173;DHT22;41061;52.822;6.860;2022-07-23T06:54:37;17.00;99.90
55173;DHT22;41061;52.822;6.860;2022-07-23T06:57:02;17.10;99.90
55173;DHT22;41061;52.822;6.860;2022-07-23T06:59:28;17.10;99.90
55173;DHT22;41061;52.822;6.860;2022-07-23T07:01:54;17.20;99.90
55173;DHT22;41061;52.822;6.860;2022-07-23T07:04:19;17.30;99.90
55173;DHT22;41061;52.822;6.860;2022-07-23T07:06:45;17.30;99.90
55173;DHT22;41061;52.822;6.860;2022-07-23T07:09:11;17.40;99.90
55173;DHT22;41061;52.822;6.860;2022-07-23T07:11:36;17.50;99.90
55173;DHT22;41061;52.822;6.860;2022-07-23T07:14:02;17.50;99.90
55173;DHT22;41061;52.822;6.860;2022-07-23T07:16:30;17.60;99.90
55173;DHT22;41061;52.822;6.860;2022-07-23T07:18:55;17.70;99.90
55173;DHT22;41061;52.822;6.860;2022-07-23T07:21:21;17.80;99.90
55173;DHT22;41061;52.822;6.860;2022-07-23T07:23:46;17.90;99.90
55173;DHT22;41061;52.822;6.860;2022-07-23T07:26:12;18.00;99.90
55173;DHT22;41061;52.822;6.860;2022-07-23T07:28:38;18.00;99.90
55173;DHT22;41061;52.822;6.860;2022-07-23T07:31:03;18.10;99.90
55173;DHT22;41061;52.822;6.860;2022-07-23T07:33:30;18.30;99.90
55173;DHT22;41061;52.822;6.860;2022-07-23T07:35:55;18.40;99.90
55173;DHT22;41061;52.822;6.860;2022-07-23T07:38:21;18.50;99.90
55173;DHT22;41061;52.822;6.860;2022-07-23T07:40:47;18.70;99.90
55173;DHT22;41061;52.822;6.860;2022-07-23T07:43:12;18.80;99.90
55173;DHT22;41061;52.822;6.860;2022-07-23T07:45:38;18.90;99.90
55173;DHT22;41061;52.822;6.860;2022-07-23T07:48:04;19.00;99.90
55173;DHT22;41061;52.822;6.860;2022-07-23T07:50:30;18.90;99.90
55173;DHT22;41061;52.822;6.860;2022-07-23T07:52:56;18.90;99.90
55173;DHT22;41061;52.822;6.860;2022-07-23T07:55:21;19.00;99.90
55173;DHT22;41061;52.822;6.860;2022-07-23T07:57:47;19.00;99.90
55173;DHT22;41061;52.822;6.860;2022-07-23T08:00:13;19.10;99.90
55173;DHT22;41061;52.822;6.860;2022-07-23T08:02:47;19.30;99.90
55173;DHT22;41061;52.822;6.860;2022-07-23T08:05:13;19.50;99.90
55173;DHT22;41061;52.822;6.860;2022-07-23T08:07:40;19.60;99.90
55173;DHT22;41061;52.822;6.860;2022-07-23T08:10:07;19.80;99.90
55173;DHT22;41061;52.822;6.860;2022-07-23T08:12:48;19.90;99.90
55173;DHT22;41061;52.822;6.860;2022-07-23T08:15:16;19.70;99.90
55173;DHT22;41061;52.822;6.860;2022-07-23T08:17:43;19.60;99.90
55173;DHT22;41061;52.822;6.860;2022-07-23T08:20:11;19.60;99.90
55173;DHT22;41061;52.822;6.860;2022-07-23T08:22:57;19.60;99.90
55173;DHT22;41061;52.822;6.860;2022-07-23T08:25:28;19.60;99.90
55173;DHT22;41061;52.822;6.860;2022-07-23T08:27:55;19.80;99.90
55173;DHT22;41061;52.822;6.860;2022-07-23T08:30:21;20.00;99.90
55173;DHT22;41061;52.822;6.860;2022-07-23T08:32:52;20.00;99.90
55173;DHT22;41061;52.822;6.860;2022-07-23T08:35:22;20.10;99.90
55173;DHT22;41061;52.822;6.860;2022-07-23T08:37:48;20.10;99.90
55173;DHT22;41061;52.822;6.860;2022-07-23T08:40:13;20.30;99.90
55173;DHT22;41061;52.822;6.860;2022-07-23T08:42:39;20.50;99.90
55173;DHT22;41061;52.822;6.860;2022-07-23T08:45:07;20.50;99.90
55173;DHT22;41061;52.822;6.860;2022-07-23T08:47:33;20.50;99.90
55173;DHT22;41061;52.822;6.860;2022-07-23T08:50:00;20.30;99.90
55173;DHT22;41061;52.822;6.860;2022-07-23T08:52:26;20.40;99.90
55173;DHT22;41061;52.822;6.860;2022-07-23T08:54:53;20.60;99.90
55173;DHT22;41061;52.822;6.860;2022-07-23T08:57:19;20.60;99.90
55173;DHT22;41061;52.822;6.860;2022-07-23T08:59:45;20.50;99.90
55173;DHT22;41061;52.822;6.860;2022-07-23T09:02:12;20.50;99.90
55173;DHT22;41061;52.822;6.860;2022-07-23T09:04:37;20.50;99.90
55173;DHT22;41061;52.822;6.860;2022-07-23T09:07:03;20.60;99.90
55173;DHT22;41061;52.822;6.860;2022-07-23T09:09:29;20.70;99.90
55173;DHT22;41061;52.822;6.860;2022-07-23T09:12:07;20.80;99.90
55173;DHT22;41061;52.822;6.860;2022-07-23T09:14:42;21.10;99.90
55173;DHT22;41061;52.822;6.860;2022-07-23T09:19:35;21.50;99.90
55173;DHT22;41061;52.822;6.860;2022-07-23T09:22:26;21.40;99.90
55173;DHT22;41061;52.822;6.860;2022-07-23T09:25:11;21.20;99.90
55173;DHT22;41061;52.822;6.860;2022-07-23T09:27:54;21.00;99.90
55173;DHT22;41061;52.822;6.860;2022-07-23T09:30:25;20.90;99.90
55173;DHT22;41061;52.822;6.860;2022-07-23T09:33:10;20.90;99.90
55173;DHT22;41061;52.822;6.860;2022-07-23T09:38:11;21.40;99.90
55173;DHT22;41061;52.822;6.860;2022-07-23T09:40:37;21.60;99.90
55173;DHT22;41061;52.822;6.860;2022-07-23T09:43:02;21.80;99.90
55173;DHT22;41061;52.822;6.860;2022-07-23T09:45:28;22.10;99.90
55173;DHT22;41061;52.822;6.860;2022-07-23T09:48:10;22.10;99.90
55173;DHT22;41061;52.822;6.860;2022-07-23T09:50:37;21.80;99.90
55173;DHT22;41061;52.822;6.860;2022-07-23T09:53:02;21.30;99.90
55173;DHT22;41061;52.822;6.860;2022-07-23T09:55:33;21.10;99.90
55173;DHT22;41061;52.822;6.860;2022-07-23T09:58:05;21.10;99.90
55173;DHT22;41061;52.822;6.860;2022-07-23T10:00:35;21.30;99.90
55173;DHT22;41061;52.822;6.860;2022-07-23T10:03:01;21.60;99.90
55173;DHT22;41061;52.822;6.860;2022-07-23T10:05:29;22.00;99.90
55173;DHT22;41061;52.822;6.860;2022-07-23T10:07:55;22.20;99.90
55173;DHT22;41061;52.822;6.860;2022-07-23T10:10:22;22.20;99.90
55173;DHT22;41061;52.822;6.860;2022-07-23T10:12:49;22.10;99.90
55173;DHT22;41061;52.822;6.860;2022-07-23T10:15:54;22.00;99.90
55173;DHT22;41061;52.822;6.860;2022-07-23T10:18:19;22.10;99.90
55173;DHT22;41061;52.822;6.860;2022-07-23T10:20:47;22.20;99.90
55173;DHT22;41061;52.822;6.860;2022-07-23T10:25:49;22.30;99.90
55173;DHT22;41061;52.822;6.860;2022-07-23T10:31:33;22.30;99.90
55173;DHT22;41061;52.822;6.860;2022-07-23T10:36:52;22.30;99.90
55173;DHT22;41061;52.822;6.860;2022-07-23T10:39:37;22.20;99.90
55173;DHT22;41061;52.822;6.860;2022-07-23T10:44:43;21.70;99.90
55173;DHT22;41061;52.822;6.860;2022-07-23T10:47:21;21.80;99.90
55173;DHT22;41061;52.822;6.860;2022-07-23T10:49:50;22.30;99.90
55173;DHT22;41061;52.822;6.860;2022-07-23T10:52:26;22.70;99.90
55173;DHT22;41061;52.822;6.860;2022-07-23T10:55:42;23.00;99.90
55173;DHT22;41061;52.822;6.860;2022-07-23T10:57:50;23.30;99.90
55173;DHT22;41061;52.822;6.860;2022-07-23T11:00:27;23.50;99.90
55173;DHT22;41061;52.822;6.860;2022-07-23T11:02:56;23.30;99.90
55173;DHT22;41061;52.822;6.860;2022-07-23T11:05:47;23.20;99.90
55173;DHT22;41061;52.822;6.860;2022-07-23T11:08:17;23.40;99.90
55173;DHT22;41061;52.822;6.860;2022-07-23T11:10:49;23.50;99.90
55173;DHT22;41061;52.822;6.860;2022-07-23T11:24:08;23.30;99.90
55173;DHT22;41061;52.822;6.860;2022-07-23T11:36:57;24.50;99.90
55173;DHT22;41061;52.822;6.860;2022-07-23T11:39:26;24.60;99.90
55173;DHT22;41061;52.822;6.860;2022-07-23T11:41:53;24.70;99.90
55173;DHT22;41061;52.822;6.860;2022-07-23T11:44:47;24.50;99.90
55173;DHT22;41061;52.822;6.860;2022-07-23T11:47:13;24.20;99.90
55173;DHT22;41061;52.822;6.860;2022-07-23T11:49:55;24.20;99.90
55173;DHT22;41061;52.822;6.860;2022-07-23T11:52:22;24.20;99.90
55173;DHT22;41061;52.822;6.860;2022-07-23T11:54:51;24.40;99.90
55173;DHT22;41061;52.822;6.860;2022-07-23T11:57:18;24.70;99.90
55173;DHT22;41061;52.822;6.860;2022-07-23T11:59:44;24.80;99.90
55173;DHT22;41061;52.822;6.860;2022-07-23T12:02:11;24.70;99.50
55173;DHT22;41061;52.822;6.860;2022-07-23T12:04:41;24.60;99.80
55173;DHT22;41061;52.822;6.860;2022-07-23T12:12:38;24.10;99.90
55173;DHT22;41061;52.822;6.860;2022-07-23T12:15:05;23.80;99.90
55173;DHT22;41061;52.822;6.860;2022-07-23T12:17:34;24.00;99.90
55173;DHT22;41061;52.822;6.860;2022-07-23T12:20:05;24.20;99.90
55173;DHT22;41061;52.822;6.860;2022-07-23T12:22:39;24.60;99.90
55173;DHT22;41061;52.822;6.860;2022-07-23T12:25:16;24.90;99.90
55173;DHT22;41061;52.822;6.860;2022-07-23T12:27:43;24.90;99.90
55173;DHT22;41061;52.822;6.860;2022-07-23T12:30:21;24.80;99.90
55173;DHT22;41061;52.822;6.860;2022-07-23T12:32:49;24.90;99.90
55173;DHT22;41061;52.822;6.860;2022-07-23T12:35:16;24.70;99.90
55173;DHT22;41061;52.822;6.860;2022-07-23T12:37:44;24.60;99.70
55173;DHT22;41061;52.822;6.860;2022-07-23T12:40:20;24.50;99.30
55173;DHT22;41061;52.822;6.860;2022-07-23T12:42:48;24.50;99.40
55173;DHT22;41061;52.822;6.860;2022-07-23T12:45:14;24.50;99.90
55173;DHT22;41061;52.822;6.860;2022-07-23T12:48:02;24.80;99.90
55173;DHT22;41061;52.822;6.860;2022-07-23T12:50:54;25.20;99.90
55173;DHT22;41061;52.822;6.860;2022-07-23T12:53:22;25.40;98.10
55173;DHT22;41061;52.822;6.860;2022-07-23T12:55:49;25.30;98.00
55173;DHT22;41061;52.822;6.860;2022-07-23T12:58:17;25.10;98.60
55173;DHT22;41061;52.822;6.860;2022-07-23T13:05:54;24.60;98.10
55173;DHT22;41061;52.822;6.860;2022-07-23T13:08:20;24.50;99.80
55173;DHT22;41061;52.822;6.860;2022-07-23T13:10:46;24.60;99.90
55173;DHT22;41061;52.822;6.860;2022-07-23T13:13:15;24.50;99.90
55173;DHT22;41061;52.822;6.860;2022-07-23T13:15:44;24.40;99.90
55173;DHT22;41061;52.822;6.860;2022-07-23T13:18:10;24.30;99.90
55173;DHT22;41061;52.822;6.860;2022-07-23T13:20:36;23.90;99.90
55173;DHT22;41061;52.822;6.860;2022-07-23T13:23:05;23.60;99.90
55173;DHT22;41061;52.822;6.860;2022-07-23T13:25:31;23.50;99.90
55173;DHT22;41061;52.822;6.860;2022-07-23T13:27:56;23.40;99.90
55173;DHT22;41061;52.822;6.860;2022-07-23T13:30:22;23.40;99.90
55173;DHT22;41061;52.822;6.860;2022-07-23T13:32:48;23.60;99.90
55173;DHT22;41061;52.822;6.860;2022-07-23T13:35:14;23.50;99.90
55173;DHT22;41061;52.822;6.860;2022-07-23T13:37:40;23.60;99.90
55173;DHT22;41061;52.822;6.860;2022-07-23T13:40:06;23.50;99.90
55173;DHT22;41061;52.822;6.860;2022-07-23T13:42:32;23.60;99.90
55173;DHT22;41061;52.822;6.860;2022-07-23T13:44:58;23.80;99.90
55173;DHT22;41061;52.822;6.860;2022-07-23T13:47:23;23.90;99.90
55173;DHT22;41061;52.822;6.860;2022-07-23T13:49:49;23.80;99.90
55173;DHT22;41061;52.822;6.860;2022-07-23T13:52:15;23.70;99.90
55173;DHT22;41061;52.822;6.860;2022-07-23T13:54:41;23.50;99.90
55173;DHT22;41061;52.822;6.860;2022-07-23T13:57:07;23.40;99.90
55173;DHT22;41061;52.822;6.860;2022-07-23T13:59:35;23.30;99.90
55173;DHT22;41061;52.822;6.860;2022-07-23T14:02:02;23.20;99.90
55173;DHT22;41061;52.822;6.860;2022-07-23T14:04:28;23.10;99.90
55173;DHT22;41061;52.822;6.860;2022-07-23T14:06:54;23.00;99.90
55173;DHT22;41061;52.822;6.860;2022-07-23T14:09:19;23.10;99.90
55173;DHT22;41061;52.822;6.860;2022-07-23T14:11:45;23.40;99.90
55173;DHT22;41061;52.822;6.860;2022-07-23T14:14:11;23.80;99.90
55173;DHT22;41061;52.822;6.860;2022-07-23T14:16:36;24.00;99.90
55173;DHT22;41061;52.822;6.860;2022-07-23T14:19:02;24.00;99.90
55173;DHT22;41061;52.822;6.860;2022-07-23T14:21:28;23.80;99.90
55173;DHT22;41061;52.822;6.860;2022-07-23T14:23:53;23.50;99.90
55173;DHT22;41061;52.822;6.860;2022-07-23T14:26:20;23.20;99.90
55173;DHT22;41061;52.822;6.860;2022-07-23T14:28:45;23.10;99.90
55173;DHT22;41061;52.822;6.860;2022-07-23T14:31:11;22.90;99.90
55173;DHT22;41061;52.822;6.860;2022-07-23T14:33:36;23.00;99.90
55173;DHT22;41061;52.822;6.860;2022-07-23T14:36:02;23.10;99.90
55173;DHT22;41061;52.822;6.860;2022-07-23T14:38:28;23.50;99.90
55173;DHT22;41061;52.822;6.860;2022-07-23T14:40:56;23.90;99.90
55173;DHT22;41061;52.822;6.860;2022-07-23T14:43:22;24.30;99.90
55173;DHT22;41061;52.822;6.860;2022-07-23T14:45:48;24.70;99.90
55173;DHT22;41061;52.822;6.860;2022-07-23T14:48:13;24.70;99.90
55173;DHT22;41061;52.822;6.860;2022-07-23T14:50:39;24.60;99.90
55173;DHT22;41061;52.822;6.860;2022-07-23T14:53:05;24.50;99.90
55173;DHT22;41061;52.822;6.860;2022-07-23T14:55:32;24.60;99.90
55173;DHT22;41061;52.822;6.860;2022-07-23T14:57:58;24.70;99.90
55173;DHT22;41061;52.822;6.860;2022-07-23T15:00:23;24.90;99.90
55173;DHT22;41061;52.822;6.860;2022-07-23T15:02:49;25.20;99.90
55173;DHT22;41061;52.822;6.860;2022-07-23T15:05:15;25.20;99.90
55173;DHT22;41061;52.822;6.860;2022-07-23T15:07:41;25.50;99.90
55173;DHT22;41061;52.822;6.860;2022-07-23T15:10:07;25.40;99.90
55173;DHT22;41061;52.822;6.860;2022-07-23T15:12:32;25.40;99.90
55173;DHT22;41061;52.822;6.860;2022-07-23T15:14:59;25.40;99.90
55173;DHT22;41061;52.822;6.860;2022-07-23T15:17:24;25.30;99.90
55173;DHT22;41061;52.822;6.860;2022-07-23T15:19:50;25.20;99.90
55173;DHT22;41061;52.822;6.860;2022-07-23T15:22:16;25.00;99.90
55173;DHT22;41061;52.822;6.860;2022-07-23T15:24:42;24.90;99.90
55173;DHT22;41061;52.822;6.860;2022-07-23T15:27:08;24.90;99.90
55173;DHT22;41061;52.822;6.860;2022-07-23T15:29:34;24.70;99.90
55173;DHT22;41061;52.822;6.860;2022-07-23T15:32:00;24.50;99.90
55173;DHT22;41061;52.822;6.860;2022-07-23T15:34:26;24.50;99.90
55173;DHT22;41061;52.822;6.860;2022-07-23T15:36:52;24.60;99.90
55173;DHT22;41061;52.822;6.860;2022-07-23T15:39:18;24.90;99.90
55173;DHT22;41061;52.822;6.860;2022-07-23T15:41:44;25.20;99.90
55173;DHT22;41061;52.822;6.860;2022-07-23T15:44:10;25.40;99.90
55173;DHT22;41061;52.822;6.860;2022-07-23T15:46:36;25.50;99.80
55173;DHT22;41061;52.822;6.860;2022-07-23T15:49:02;25.50;99.10
55173;DHT22;41061;52.822;6.860;2022-07-23T15:51:28;25.50;99.10
55173;DHT22;41061;52.822;6.860;2022-07-23T15:53:54;25.30;98.90
55173;DHT22;41061;52.822;6.860;2022-07-23T15:56:20;25.30;99.30
55173;DHT22;41061;52.822;6.860;2022-07-23T15:58:45;25.20;99.30
55173;DHT22;41061;52.822;6.860;2022-07-23T16:01:12;25.30;99.00
55173;DHT22;41061;52.822;6.860;2022-07-23T16:03:38;25.40;99.60
55173;DHT22;41061;52.822;6.860;2022-07-23T16:06:05;25.50;99.60
55173;DHT22;41061;52.822;6.860;2022-07-23T16:08:31;25.70;99.60
55173;DHT22;41061;52.822;6.860;2022-07-23T16:10:57;25.60;99.50
55173;DHT22;41061;52.822;6.860;2022-07-23T16:13:24;25.60;99.70
55173;DHT22;41061;52.822;6.860;2022-07-23T16:15:50;25.40;99.50
55173;DHT22;41061;52.822;6.860;2022-07-23T16:18:16;25.30;99.90
55173;DHT22;41061;52.822;6.860;2022-07-23T16:20:42;25.30;99.60
55173;DHT22;41061;52.822;6.860;2022-07-23T16:23:08;25.20;99.40